Impacts TAF Board
For situational awareness. Not to be used for flight planning purposes.
IDs:

KOLM - Olympia Rgnl, WA, US

Issued at 1144 UTC 15 Jul 2020
Updated at 1220 UTC 15 Jul 2020
Potential Impact None Slight Moderate High
Time1154Z 15/13Z 15/14Z 15/15Z 15/16Z 15/17Z 15/18Z 15/19Z 15/20Z 15/21Z 15/22Z 15/23Z 16/00Z 16/01Z>>
Type OBS PRVL PRVL PRVL PRVL PRVL PRVL PRVL PRVL PRVL PRVL PRVL PRVL PRVL
VIS 10 >6 >6 >6 >6 >6 >6 >6 >6 >6 >6 >6 >6 >6
CIG -- -- -- -- 250 250 250 250 -- -- -- -- -- --
Cover CLR SKC SKC SKC OVC OVC OVC OVC SCT SCT SCT SCT SCT SCT
FltCat VFR VFR VFR VFR VFR VFR VFR VFR VFR VFR VFR VFR VFR VFR
WX -- -- -- -- -- -- -- -- -- -- -- -- -- --
WDir VRB VRB VRB VRB VRB VRB VRB VRB 20 20 20 20 20 20
WSpd 0 0 0 0 4 4 4 4 6 6 6 6 6 6
WGst -- -- -- -- -- -- -- -- -- -- -- -- -- --
Raw TAF
KOLM 151144Z 1512/1612 00000KT P6SM SKC
  FM151600 VRB04KT P6SM OVC250
  FM152000 02006KT P6SM SCT100
  FM160300 36006KT P6SM FEW120
  FM160600 22005KT P6SM SCT080
  TEMPO 1610/1612 P6SM BKN030


Raw METAR
KOLM 151154Z AUTO 00000KT 10SM CLR 11/09 A3013 RMK AO2 SLP204 T01060089 10189 20100 53002
KOLM 151054Z AUTO 00000KT 10SM CLR 11/09 A3013 RMK AO2 SLP201 T01060094
KOLM 150954Z AUTO 00000KT 10SM CLR 12/10 A3013 RMK AO2 SLP200 T01220100

METAR Board
Radar Display
Forecast Discussion
For situational awareness. Not to be used for flight planning purposes.